SBFL/FLN METAR and TAF weather

Enter ICAO airport designator
Station Type Date Time Source
SBFL METAR 2020/12/06 02:00 UTC NOAA

SBFL 060200Z 19003KT 150V210 3000 RA BR BKN006 BKN014 BKN040 18/18 Q1020


Station Type Date Time Source
SBFL Decoded METAR 2020/12/06 02:00 UTC NOAA

Florianopolis Aeroporto , Brazil (SBFL) 27-40S 048-33W 5M
Dec 05, 2020 - 09:00 PM EST / 2020.12.06 0200 UTC
Wind: from the S (190 degrees) at 3 MPH (3 KT) (direction variable):0
Visibility: 1 mile(s):0
Sky conditions: mostly cloudy
Weather: rain; mist
Temperature: 64 F (18 C)
Dew Point: 64 F (18 C)
Relative Humidity: 100%
Pressure (altimeter): 30.12 in. Hg (1020 hPa)
ob: SBFL 060200Z 19003KT 150V210 3000 RA BR BKN006 BKN014 BKN040 18/18 Q1020
cycle: 2

Station Type Date Time Source
SBFL TAF 2020/12/06 00:00 UTC NOAA

TAF SBFL 052200Z 0600/0624 35010KT 4000 -DZ BKN012 TN16/0607Z TX19/0616Z
BECMG 0602/0604 2000 -RA BKN005
BECMG 0609/0611 4000 -RA BKN009
RMK PEM

Example: see airport list